sensor_id;sensor_type;location;lat;lon;timestamp;P1;durP1;ratioP1;P2;durP2;ratioP2
65581;SDS011;52231;40.090;18.348;2023-09-19T00:00:47;18.60;;;10.75;;
65581;SDS011;52231;40.090;18.348;2023-09-19T00:03:16;20.27;;;9.82;;
65581;SDS011;52231;40.090;18.348;2023-09-19T00:05:44;20.63;;;10.55;;
65581;SDS011;52231;40.090;18.348;2023-09-19T00:08:13;20.35;;;10.20;;
65581;SDS011;52231;40.090;18.348;2023-09-19T00:10:42;17.02;;;8.65;;
65581;SDS011;52231;40.090;18.348;2023-09-19T00:13:12;19.90;;;9.90;;
65581;SDS011;52231;40.090;18.348;2023-09-19T00:16:08;21.48;;;10.52;;
65581;SDS011;52231;40.090;18.348;2023-09-19T00:18:42;21.13;;;10.80;;
65581;SDS011;52231;40.090;18.348;2023-09-19T00:21:12;21.05;;;10.35;;
65581;SDS011;52231;40.090;18.348;2023-09-19T00:23:44;21.17;;;11.15;;
65581;SDS011;52231;40.090;18.348;2023-09-19T00:26:24;18.45;;;10.70;;
65581;SDS011;52231;40.090;18.348;2023-09-19T00:28:53;18.77;;;10.25;;
65581;SDS011;52231;40.090;18.348;2023-09-19T00:31:21;19.33;;;11.20;;
65581;SDS011;52231;40.090;18.348;2023-09-19T00:33:50;18.17;;;10.38;;
65581;SDS011;52231;40.090;18.348;2023-09-19T00:36:19;22.42;;;10.80;;
65581;SDS011;52231;40.090;18.348;2023-09-19T00:38:47;20.70;;;10.07;;
65581;SDS011;52231;40.090;18.348;2023-09-19T00:41:15;19.95;;;9.57;;
65581;SDS011;52231;40.090;18.348;2023-09-19T00:46:12;24.48;;;11.57;;
65581;SDS011;52231;40.090;18.348;2023-09-19T00:48:45;23.73;;;11.25;;
65581;SDS011;52231;40.090;18.348;2023-09-19T00:51:14;22.52;;;10.75;;
65581;SDS011;52231;40.090;18.348;2023-09-19T00:53:47;28.70;;;12.07;;
65581;SDS011;52231;40.090;18.348;2023-09-19T00:56:16;21.52;;;11.20;;
65581;SDS011;52231;40.090;18.348;2023-09-19T00:58:47;20.73;;;11.02;;
65581;SDS011;52231;40.090;18.348;2023-09-19T01:04:17;20.80;;;10.18;;
65581;SDS011;52231;40.090;18.348;2023-09-19T01:06:45;20.75;;;10.98;;
65581;SDS011;52231;40.090;18.348;2023-09-19T01:09:23;22.95;;;11.15;;
65581;SDS011;52231;40.090;18.348;2023-09-19T01:11:53;21.05;;;9.98;;
65581;SDS011;52231;40.090;18.348;2023-09-19T01:14:34;22.08;;;10.70;;
65581;SDS011;52231;40.090;18.348;2023-09-19T01:20:08;21.83;;;10.32;;
65581;SDS011;52231;40.090;18.348;2023-09-19T01:31:47;20.77;;;10.70;;
65581;SDS011;52231;40.090;18.348;2023-09-19T01:34:24;18.75;;;10.02;;
65581;SDS011;52231;40.090;18.348;2023-09-19T01:37:11;20.08;;;10.18;;
65581;SDS011;52231;40.090;18.348;2023-09-19T01:39:40;20.55;;;10.57;;
65581;SDS011;52231;40.090;18.348;2023-09-19T01:42:12;20.08;;;11.05;;
65581;SDS011;52231;40.090;18.348;2023-09-19T01:47:26;25.02;;;11.05;;
65581;SDS011;52231;40.090;18.348;2023-09-19T01:49:59;21.13;;;11.45;;
65581;SDS011;52231;40.090;18.348;2023-09-19T01:52:59;21.70;;;10.90;;
65581;SDS011;52231;40.090;18.348;2023-09-19T01:55:36;23.02;;;11.95;;
65581;SDS011;52231;40.090;18.348;2023-09-19T01:58:14;23.48;;;11.55;;
65581;SDS011;52231;40.090;18.348;2023-09-19T02:00:43;24.08;;;11.85;;
65581;SDS011;52231;40.090;18.348;2023-09-19T02:03:14;21.42;;;11.98;;
65581;SDS011;52231;40.090;18.348;2023-09-19T02:05:49;27.83;;;12.60;;
65581;SDS011;52231;40.090;18.348;2023-09-19T02:08:20;21.15;;;11.82;;
65581;SDS011;52231;40.090;18.348;2023-09-19T02:10:52;24.40;;;12.65;;
65581;SDS011;52231;40.090;18.348;2023-09-19T02:13:22;23.60;;;12.48;;
65581;SDS011;52231;40.090;18.348;2023-09-19T02:15:55;24.95;;;12.90;;
65581;SDS011;52231;40.090;18.348;2023-09-19T02:18:23;24.50;;;11.80;;
65581;SDS011;52231;40.090;18.348;2023-09-19T02:20:54;23.40;;;12.18;;
65581;SDS011;52231;40.090;18.348;2023-09-19T02:23:23;22.70;;;12.30;;
65581;SDS011;52231;40.090;18.348;2023-09-19T02:25:54;21.85;;;11.55;;
65581;SDS011;52231;40.090;18.348;2023-09-19T02:28:25;23.15;;;12.20;;
65581;SDS011;52231;40.090;18.348;2023-09-19T02:30:58;22.48;;;12.20;;
65581;SDS011;52231;40.090;18.348;2023-09-19T02:33:26;27.80;;;12.30;;
65581;SDS011;52231;40.090;18.348;2023-09-19T02:38:54;21.60;;;11.65;;
65581;SDS011;52231;40.090;18.348;2023-09-19T02:41:23;22.45;;;12.00;;
65581;SDS011;52231;40.090;18.348;2023-09-19T02:46:23;21.52;;;11.77;;
65581;SDS011;52231;40.090;18.348;2023-09-19T02:51:19;20.65;;;11.88;;
65581;SDS011;52231;40.090;18.348;2023-09-19T02:53:47;19.65;;;11.43;;
65581;SDS011;52231;40.090;18.348;2023-09-19T02:56:17;21.40;;;11.43;;
65581;SDS011;52231;40.090;18.348;2023-09-19T02:58:45;21.02;;;11.82;;
65581;SDS011;52231;40.090;18.348;2023-09-19T03:01:16;23.77;;;13.25;;
65581;SDS011;52231;40.090;18.348;2023-09-19T03:03:46;26.25;;;11.88;;
65581;SDS011;52231;40.090;18.348;2023-09-19T03:06:14;20.80;;;12.05;;
65581;SDS011;52231;40.090;18.348;2023-09-19T03:08:43;21.95;;;11.70;;
65581;SDS011;52231;40.090;18.348;2023-09-19T03:11:12;20.83;;;11.93;;
65581;SDS011;52231;40.090;18.348;2023-09-19T03:13:45;25.27;;;13.02;;
65581;SDS011;52231;40.090;18.348;2023-09-19T03:16:15;21.20;;;11.68;;
65581;SDS011;52231;40.090;18.348;2023-09-19T03:18:44;20.45;;;11.45;;
65581;SDS011;52231;40.090;18.348;2023-09-19T03:21:16;22.73;;;11.15;;
65581;SDS011;52231;40.090;18.348;2023-09-19T03:23:45;20.85;;;12.07;;
65581;SDS011;52231;40.090;18.348;2023-09-19T03:26:13;23.92;;;11.70;;
65581;SDS011;52231;40.090;18.348;2023-09-19T03:28:43;24.20;;;12.07;;
65581;SDS011;52231;40.090;18.348;2023-09-19T03:31:14;21.35;;;12.10;;
65581;SDS011;52231;40.090;18.348;2023-09-19T03:33:43;27.38;;;13.02;;
65581;SDS011;52231;40.090;18.348;2023-09-19T03:36:11;25.40;;;12.77;;
65581;SDS011;52231;40.090;18.348;2023-09-19T03:38:40;24.35;;;12.52;;
65581;SDS011;52231;40.090;18.348;2023-09-19T03:41:09;23.70;;;12.98;;
65581;SDS011;52231;40.090;18.348;2023-09-19T03:43:37;24.15;;;12.48;;
65581;SDS011;52231;40.090;18.348;2023-09-19T03:46:06;23.23;;;12.32;;
65581;SDS011;52231;40.090;18.348;2023-09-19T03:48:37;22.95;;;11.90;;
65581;SDS011;52231;40.090;18.348;2023-09-19T03:51:05;26.80;;;12.57;;
65581;SDS011;52231;40.090;18.348;2023-09-19T03:53:33;21.10;;;11.75;;
65581;SDS011;52231;40.090;18.348;2023-09-19T03:56:05;24.35;;;12.07;;
65581;SDS011;52231;40.090;18.348;2023-09-19T03:58:36;21.13;;;11.23;;
65581;SDS011;52231;40.090;18.348;2023-09-19T04:01:13;24.27;;;12.38;;
65581;SDS011;52231;40.090;18.348;2023-09-19T04:03:45;29.85;;;12.30;;
65581;SDS011;52231;40.090;18.348;2023-09-19T04:06:15;22.08;;;12.77;;
65581;SDS011;52231;40.090;18.348;2023-09-19T04:08:44;25.98;;;12.60;;
65581;SDS011;52231;40.090;18.348;2023-09-19T04:11:13;22.90;;;12.63;;
65581;SDS011;52231;40.090;18.348;2023-09-19T04:16:10;21.40;;;11.98;;
65581;SDS011;52231;40.090;18.348;2023-09-19T04:18:38;22.13;;;12.15;;
65581;SDS011;52231;40.090;18.348;2023-09-19T04:21:08;20.30;;;11.60;;
65581;SDS011;52231;40.090;18.348;2023-09-19T04:23:36;26.23;;;12.80;;
65581;SDS011;52231;40.090;18.348;2023-09-19T04:26:05;27.23;;;14.00;;
65581;SDS011;52231;40.090;18.348;2023-09-19T04:28:34;23.95;;;13.60;;
65581;SDS011;52231;40.090;18.348;2023-09-19T04:31:06;23.73;;;13.57;;
65581;SDS011;52231;40.090;18.348;2023-09-19T04:33:36;28.13;;;13.45;;
65581;SDS011;52231;40.090;18.348;2023-09-19T04:36:04;24.38;;;13.40;;
65581;SDS011;52231;40.090;18.348;2023-09-19T04:38:41;28.25;;;15.45;;
65581;SDS011;52231;40.090;18.348;2023-09-19T04:41:12;25.58;;;14.52;;
65581;SDS011;52231;40.090;18.348;2023-09-19T04:43:40;20.38;;;12.80;;
65581;SDS011;52231;40.090;18.348;2023-09-19T04:46:09;22.75;;;13.43;;
65581;SDS011;52231;40.090;18.348;2023-09-19T04:51:05;26.95;;;12.93;;
65581;SDS011;52231;40.090;18.348;2023-09-19T04:53:33;23.25;;;13.20;;
65581;SDS011;52231;40.090;18.348;2023-09-19T04:56:02;28.20;;;13.27;;
65581;SDS011;52231;40.090;18.348;2023-09-19T04:58:31;28.98;;;13.15;;
65581;SDS011;52231;40.090;18.348;2023-09-19T05:03:30;22.92;;;12.93;;
65581;SDS011;52231;40.090;18.348;2023-09-19T05:05:58;26.85;;;13.40;;
65581;SDS011;52231;40.090;18.348;2023-09-19T05:08:27;24.88;;;13.18;;
65581;SDS011;52231;40.090;18.348;2023-09-19T05:10:55;26.67;;;13.73;;
65581;SDS011;52231;40.090;18.348;2023-09-19T05:15:54;21.30;;;12.32;;
65581;SDS011;52231;40.090;18.348;2023-09-19T05:18:22;22.90;;;12.55;;
65581;SDS011;52231;40.090;18.348;2023-09-19T05:20:50;21.08;;;11.63;;
65581;SDS011;52231;40.090;18.348;2023-09-19T05:23:20;24.10;;;11.40;;
65581;SDS011;52231;40.090;18.348;2023-09-19T05:25:49;28.23;;;12.65;;
65581;SDS011;52231;40.090;18.348;2023-09-19T05:28:17;23.48;;;12.43;;
65581;SDS011;52231;40.090;18.348;2023-09-19T05:30:45;22.35;;;12.27;;
65581;SDS011;52231;40.090;18.348;2023-09-19T05:33:15;21.98;;;11.75;;
65581;SDS011;52231;40.090;18.348;2023-09-19T05:35:47;26.48;;;12.63;;
65581;SDS011;52231;40.090;18.348;2023-09-19T05:38:27;24.65;;;10.85;;
65581;SDS011;52231;40.090;18.348;2023-09-19T05:40:56;34.47;;;11.95;;
65581;SDS011;52231;40.090;18.348;2023-09-19T05:45:53;24.45;;;11.40;;
65581;SDS011;52231;40.090;18.348;2023-09-19T05:48:24;25.70;;;12.05;;
65581;SDS011;52231;40.090;18.348;2023-09-19T05:50:52;23.90;;;11.98;;
65581;SDS011;52231;40.090;18.348;2023-09-19T05:53:20;23.17;;;11.43;;
65581;SDS011;52231;40.090;18.348;2023-09-19T05:55:51;25.23;;;13.02;;
65581;SDS011;52231;40.090;18.348;2023-09-19T05:58:21;28.50;;;14.02;;
65581;SDS011;52231;40.090;18.348;2023-09-19T06:03:17;34.20;;;17.27;;
65581;SDS011;52231;40.090;18.348;2023-09-19T06:05:46;33.22;;;17.63;;
65581;SDS011;52231;40.090;18.348;2023-09-19T06:08:16;38.00;;;17.77;;
65581;SDS011;52231;40.090;18.348;2023-09-19T06:10:45;33.35;;;17.23;;
65581;SDS011;52231;40.090;18.348;2023-09-19T06:13:14;35.63;;;16.98;;
65581;SDS011;52231;40.090;18.348;2023-09-19T06:15:42;36.85;;;17.00;;
65581;SDS011;52231;40.090;18.348;2023-09-19T06:18:11;38.20;;;14.93;;
65581;SDS011;52231;40.090;18.348;2023-09-19T06:20:47;29.45;;;13.43;;
65581;SDS011;52231;40.090;18.348;2023-09-19T06:23:18;32.58;;;12.05;;
65581;SDS011;52231;40.090;18.348;2023-09-19T06:26:08;31.17;;;11.95;;
65581;SDS011;52231;40.090;18.348;2023-09-19T06:28:36;25.58;;;11.00;;
65581;SDS011;52231;40.090;18.348;2023-09-19T06:31:09;29.02;;;10.88;;
65581;SDS011;52231;40.090;18.348;2023-09-19T06:33:37;27.75;;;11.13;;
65581;SDS011;52231;40.090;18.348;2023-09-19T06:36:10;26.55;;;11.30;;
65581;SDS011;52231;40.090;18.348;2023-09-19T06:38:39;24.42;;;10.93;;
65581;SDS011;52231;40.090;18.348;2023-09-19T06:41:08;22.25;;;10.18;;
65581;SDS011;52231;40.090;18.348;2023-09-19T06:43:36;30.75;;;10.68;;
65581;SDS011;52231;40.090;18.348;2023-09-19T06:46:04;24.13;;;9.70;;
65581;SDS011;52231;40.090;18.348;2023-09-19T06:48:34;28.10;;;10.98;;
65581;SDS011;52231;40.090;18.348;2023-09-19T06:51:03;32.88;;;10.20;;
65581;SDS011;52231;40.090;18.348;2023-09-19T06:53:32;27.83;;;8.38;;
65581;SDS011;52231;40.090;18.348;2023-09-19T06:56:03;25.50;;;7.88;;
65581;SDS011;52231;40.090;18.348;2023-09-19T06:58:31;26.88;;;7.47;;
65581;SDS011;52231;40.090;18.348;2023-09-19T07:00:59;29.67;;;8.68;;
65581;SDS011;52231;40.090;18.348;2023-09-19T07:03:27;27.58;;;10.85;;
65581;SDS011;52231;40.090;18.348;2023-09-19T07:05:56;30.00;;;8.43;;
65581;SDS011;52231;40.090;18.348;2023-09-19T07:08:25;24.10;;;6.22;;
65581;SDS011;52231;40.090;18.348;2023-09-19T07:10:54;21.63;;;6.55;;
65581;SDS011;52231;40.090;18.348;2023-09-19T07:13:24;23.52;;;6.38;;
65581;SDS011;52231;40.090;18.348;2023-09-19T07:15:52;17.77;;;6.30;;
65581;SDS011;52231;40.090;18.348;2023-09-19T07:18:21;21.98;;;4.80;;
65581;SDS011;52231;40.090;18.348;2023-09-19T07:25:21;25.10;;;5.03;;
65581;SDS011;52231;40.090;18.348;2023-09-19T07:32:40;30.27;;;5.03;;
65581;SDS011;52231;40.090;18.348;2023-09-19T07:35:08;25.27;;;5.88;;
65581;SDS011;52231;40.090;18.348;2023-09-19T07:37:36;29.05;;;5.63;;
65581;SDS011;52231;40.090;18.348;2023-09-19T07:40:08;26.20;;;6.20;;
65581;SDS011;52231;40.090;18.348;2023-09-19T07:42:39;25.40;;;5.45;;
65581;SDS011;52231;40.090;18.348;2023-09-19T07:45:08;32.78;;;6.47;;
65581;SDS011;52231;40.090;18.348;2023-09-19T07:47:37;29.23;;;6.22;;
65581;SDS011;52231;40.090;18.348;2023-09-19T07:50:05;28.02;;;6.07;;
65581;SDS011;52231;40.090;18.348;2023-09-19T07:52:34;21.58;;;5.15;;
65581;SDS011;52231;40.090;18.348;2023-09-19T07:55:03;26.17;;;5.07;;
65581;SDS011;52231;40.090;18.348;2023-09-19T07:57:35;26.27;;;5.50;;
65581;SDS011;52231;40.090;18.348;2023-09-19T08:00:03;23.08;;;5.50;;
65581;SDS011;52231;40.090;18.348;2023-09-19T08:02:43;26.45;;;6.38;;
65581;SDS011;52231;40.090;18.348;2023-09-19T08:05:11;26.55;;;6.07;;
65581;SDS011;52231;40.090;18.348;2023-09-19T08:07:43;34.17;;;8.07;;
65581;SDS011;52231;40.090;18.348;2023-09-19T08:10:19;33.45;;;8.27;;
65581;SDS011;52231;40.090;18.348;2023-09-19T08:12:49;34.00;;;8.50;;
65581;SDS011;52231;40.090;18.348;2023-09-19T08:15:23;32.97;;;8.73;;
65581;SDS011;52231;40.090;18.348;2023-09-19T08:17:51;24.10;;;7.63;;
65581;SDS011;52231;40.090;18.348;2023-09-19T08:20:20;24.50;;;7.63;;
65581;SDS011;52231;40.090;18.348;2023-09-19T08:22:51;26.35;;;8.98;;
65581;SDS011;52231;40.090;18.348;2023-09-19T08:25:22;24.10;;;9.02;;
65581;SDS011;52231;40.090;18.348;2023-09-19T08:31:15;22.33;;;7.07;;
65581;SDS011;52231;40.090;18.348;2023-09-19T08:33:45;21.95;;;7.10;;
65581;SDS011;52231;40.090;18.348;2023-09-19T08:36:16;16.63;;;6.18;;
65581;SDS011;52231;40.090;18.348;2023-09-19T08:38:45;22.05;;;7.18;;
65581;SDS011;52231;40.090;18.348;2023-09-19T08:41:13;21.80;;;7.32;;
65581;SDS011;52231;40.090;18.348;2023-09-19T08:43:41;20.95;;;7.35;;
65581;SDS011;52231;40.090;18.348;2023-09-19T08:49:57;21.40;;;7.18;;
65581;SDS011;52231;40.090;18.348;2023-09-19T08:52:49;29.23;;;7.00;;
65581;SDS011;52231;40.090;18.348;2023-09-19T08:55:26;22.67;;;6.55;;
65581;SDS011;52231;40.090;18.348;2023-09-19T09:00:29;23.05;;;6.65;;
65581;SDS011;52231;40.090;18.348;2023-09-19T09:02:58;20.30;;;5.90;;
65581;SDS011;52231;40.090;18.348;2023-09-19T09:05:28;22.35;;;6.10;;
65581;SDS011;52231;40.090;18.348;2023-09-19T09:07:57;23.90;;;5.60;;
65581;SDS011;52231;40.090;18.348;2023-09-19T09:10:27;23.65;;;5.88;;
65581;SDS011;52231;40.090;18.348;2023-09-19T09:12:57;17.63;;;5.93;;
65581;SDS011;52231;40.090;18.348;2023-09-19T09:15:26;20.23;;;5.18;;
65581;SDS011;52231;40.090;18.348;2023-09-19T09:17:57;21.70;;;5.90;;
65581;SDS011;52231;40.090;18.348;2023-09-19T09:20:25;19.88;;;5.45;;
65581;SDS011;52231;40.090;18.348;2023-09-19T09:22:54;19.48;;;4.95;;
65581;SDS011;52231;40.090;18.348;2023-09-19T09:28:25;22.42;;;5.18;;
65581;SDS011;52231;40.090;18.348;2023-09-19T09:30:55;21.55;;;6.05;;
65581;SDS011;52231;40.090;18.348;2023-09-19T09:33:25;18.42;;;5.30;;
65581;SDS011;52231;40.090;18.348;2023-09-19T09:35:58;18.00;;;5.10;;
65581;SDS011;52231;40.090;18.348;2023-09-19T09:38:43;16.90;;;4.60;;
65581;SDS011;52231;40.090;18.348;2023-09-19T09:45:44;21.40;;;5.53;;
65581;SDS011;52231;40.090;18.348;2023-09-19T09:48:16;23.55;;;6.30;;
65581;SDS011;52231;40.090;18.348;2023-09-19T09:50:59;24.42;;;5.68;;
65581;SDS011;52231;40.090;18.348;2023-09-19T09:53:30;18.95;;;5.03;;
65581;SDS011;52231;40.090;18.348;2023-09-19T09:56:05;19.27;;;5.07;;
65581;SDS011;52231;40.090;18.348;2023-09-19T09:58:38;20.30;;;4.85;;
65581;SDS011;52231;40.090;18.348;2023-09-19T10:01:23;23.77;;;5.43;;
65581;SDS011;52231;40.090;18.348;2023-09-19T10:03:57;23.13;;;5.03;;
65581;SDS011;52231;40.090;18.348;2023-09-19T10:06:25;20.10;;;4.93;;
65581;SDS011;52231;40.090;18.348;2023-09-19T10:08:57;19.35;;;5.35;;
65581;SDS011;52231;40.090;18.348;2023-09-19T10:11:43;15.75;;;4.97;;
65581;SDS011;52231;40.090;18.348;2023-09-19T10:14:13;18.38;;;4.95;;
65581;SDS011;52231;40.090;18.348;2023-09-19T10:16:47;14.75;;;4.72;;
65581;SDS011;52231;40.090;18.348;2023-09-19T10:19:29;22.40;;;4.60;;
65581;SDS011;52231;40.090;18.348;2023-09-19T10:22:01;23.70;;;4.97;;
65581;SDS011;52231;40.090;18.348;2023-09-19T10:24:33;17.95;;;4.38;;
65581;SDS011;52231;40.090;18.348;2023-09-19T10:27:06;24.25;;;4.80;;
65581;SDS011;52231;40.090;18.348;2023-09-19T10:29:39;15.35;;;4.32;;
65581;SDS011;52231;40.090;18.348;2023-09-19T10:32:07;21.42;;;4.72;;
65581;SDS011;52231;40.090;18.348;2023-09-19T10:34:36;16.70;;;4.40;;
65581;SDS011;52231;40.090;18.348;2023-09-19T10:37:08;18.75;;;4.60;;
65581;SDS011;52231;40.090;18.348;2023-09-19T10:39:40;15.43;;;4.15;;
65581;SDS011;52231;40.090;18.348;2023-09-19T10:42:14;17.35;;;4.55;;
65581;SDS011;52231;40.090;18.348;2023-09-19T10:44:50;21.00;;;4.53;;
65581;SDS011;52231;40.090;18.348;2023-09-19T10:47:25;15.48;;;4.22;;
65581;SDS011;52231;40.090;18.348;2023-09-19T10:49:54;22.23;;;4.47;;
65581;SDS011;52231;40.090;18.348;2023-09-19T10:52:23;20.83;;;4.97;;
65581;SDS011;52231;40.090;18.348;2023-09-19T10:54:55;20.85;;;4.97;;
65581;SDS011;52231;40.090;18.348;2023-09-19T10:57:27;21.95;;;4.88;;
65581;SDS011;52231;40.090;18.348;2023-09-19T11:00:05;20.73;;;4.50;;
65581;SDS011;52231;40.090;18.348;2023-09-19T11:05:42;21.83;;;4.78;;
65581;SDS011;52231;40.090;18.348;2023-09-19T11:08:11;23.40;;;4.68;;
65581;SDS011;52231;40.090;18.348;2023-09-19T11:10:47;25.67;;;4.60;;
65581;SDS011;52231;40.090;18.348;2023-09-19T11:13:28;28.75;;;5.38;;
65581;SDS011;52231;40.090;18.348;2023-09-19T11:16:03;25.70;;;5.75;;
65581;SDS011;52231;40.090;18.348;2023-09-19T11:26:50;25.30;;;4.95;;
65581;SDS011;52231;40.090;18.348;2023-09-19T11:29:32;26.20;;;5.20;;
65581;SDS011;52231;40.090;18.348;2023-09-19T11:32:00;23.95;;;4.85;;
65581;SDS011;52231;40.090;18.348;2023-09-19T11:42:44;25.35;;;5.30;;
65581;SDS011;52231;40.090;18.348;2023-09-19T11:50:43;23.23;;;5.50;;
65581;SDS011;52231;40.090;18.348;2023-09-19T11:53:12;19.60;;;4.20;;
65581;SDS011;52231;40.090;18.348;2023-09-19T11:55:41;20.73;;;4.90;;
65581;SDS011;52231;40.090;18.348;2023-09-19T11:58:15;23.67;;;5.20;;
65581;SDS011;52231;40.090;18.348;2023-09-19T12:00:45;26.20;;;4.95;;
65581;SDS011;52231;40.090;18.348;2023-09-19T12:03:14;22.02;;;5.05;;
65581;SDS011;52231;40.090;18.348;2023-09-19T12:08:49;18.70;;;5.10;;
65581;SDS011;52231;40.090;18.348;2023-09-19T12:11:29;19.50;;;4.80;;
65581;SDS011;52231;40.090;18.348;2023-09-19T12:14:26;19.08;;;4.68;;
65581;SDS011;52231;40.090;18.348;2023-09-19T12:17:11;20.63;;;4.82;;
65581;SDS011;52231;40.090;18.348;2023-09-19T12:20:04;19.80;;;4.50;;
65581;SDS011;52231;40.090;18.348;2023-09-19T12:23:09;18.02;;;4.20;;
65581;SDS011;52231;40.090;18.348;2023-09-19T12:26:22;21.20;;;4.68;;
65581;SDS011;52231;40.090;18.348;2023-09-19T12:28:58;17.65;;;5.03;;
65581;SDS011;52231;40.090;18.348;2023-09-19T12:31:52;19.40;;;5.07;;
65581;SDS011;52231;40.090;18.348;2023-09-19T12:34:40;20.38;;;5.00;;
65581;SDS011;52231;40.090;18.348;2023-09-19T12:37:19;13.95;;;4.03;;
65581;SDS011;52231;40.090;18.348;2023-09-19T12:40:03;13.45;;;4.70;;
65581;SDS011;52231;40.090;18.348;2023-09-19T12:43:01;16.67;;;4.15;;
65581;SDS011;52231;40.090;18.348;2023-09-19T12:45:42;19.10;;;4.38;;
65581;SDS011;52231;40.090;18.348;2023-09-19T12:48:22;15.80;;;4.13;;
65581;SDS011;52231;40.090;18.348;2023-09-19T12:51:11;14.18;;;4.22;;
65581;SDS011;52231;40.090;18.348;2023-09-19T12:53:57;17.48;;;4.03;;
65581;SDS011;52231;40.090;18.348;2023-09-19T12:56:39;17.88;;;4.65;;
65581;SDS011;52231;40.090;18.348;2023-09-19T12:59:17;14.73;;;4.85;;
65581;SDS011;52231;40.090;18.348;2023-09-19T13:02:11;16.70;;;4.60;;
65581;SDS011;52231;40.090;18.348;2023-09-19T13:05:14;17.40;;;4.90;;
65581;SDS011;52231;40.090;18.348;2023-09-19T13:08:05;18.60;;;4.70;;
65581;SDS011;52231;40.090;18.348;2023-09-19T13:11:11;16.17;;;4.15;;
65581;SDS011;52231;40.090;18.348;2023-09-19T13:14:13;17.10;;;4.78;;
65581;SDS011;52231;40.090;18.348;2023-09-19T13:16:59;17.02;;;5.20;;
65581;SDS011;52231;40.090;18.348;2023-09-19T13:25:33;16.85;;;4.70;;
65581;SDS011;52231;40.090;18.348;2023-09-19T13:28:14;15.75;;;4.45;;
65581;SDS011;52231;40.090;18.348;2023-09-19T13:30:49;17.83;;;4.72;;
65581;SDS011;52231;40.090;18.348;2023-09-19T13:33:18;18.30;;;5.20;;
65581;SDS011;52231;40.090;18.348;2023-09-19T13:35:48;15.77;;;4.80;;
65581;SDS011;52231;40.090;18.348;2023-09-19T13:38:16;21.17;;;5.00;;
65581;SDS011;52231;40.090;18.348;2023-09-19T13:40:46;18.98;;;4.70;;
65581;SDS011;52231;40.090;18.348;2023-09-19T13:43:19;16.20;;;4.55;;
65581;SDS011;52231;40.090;18.348;2023-09-19T13:45:57;15.77;;;4.70;;
65581;SDS011;52231;40.090;18.348;2023-09-19T13:48:26;15.57;;;4.10;;
65581;SDS011;52231;40.090;18.348;2023-09-19T13:51:16;18.38;;;5.00;;
65581;SDS011;52231;40.090;18.348;2023-09-19T13:53:46;19.70;;;4.60;;
65581;SDS011;52231;40.090;18.348;2023-09-19T13:56:15;20.40;;;4.65;;
65581;SDS011;52231;40.090;18.348;2023-09-19T13:58:46;18.98;;;4.32;;
65581;SDS011;52231;40.090;18.348;2023-09-19T14:01:15;17.67;;;4.60;;
65581;SDS011;52231;40.090;18.348;2023-09-19T14:03:44;17.70;;;4.82;;
65581;SDS011;52231;40.090;18.348;2023-09-19T14:06:15;22.27;;;4.78;;
65581;SDS011;52231;40.090;18.348;2023-09-19T14:08:44;19.73;;;4.78;;
65581;SDS011;52231;40.090;18.348;2023-09-19T14:11:36;17.83;;;4.75;;
65581;SDS011;52231;40.090;18.348;2023-09-19T14:14:04;20.10;;;4.88;;
65581;SDS011;52231;40.090;18.348;2023-09-19T14:16:37;22.98;;;4.75;;
65581;SDS011;52231;40.090;18.348;2023-09-19T14:19:09;14.52;;;4.32;;
65581;SDS011;52231;40.090;18.348;2023-09-19T14:21:39;16.98;;;4.43;;
65581;SDS011;52231;40.090;18.348;2023-09-19T14:24:16;21.67;;;4.93;;
65581;SDS011;52231;40.090;18.348;2023-09-19T14:26:48;18.90;;;4.95;;
65581;SDS011;52231;40.090;18.348;2023-09-19T14:29:20;16.67;;;4.57;;
65581;SDS011;52231;40.090;18.348;2023-09-19T14:31:52;20.38;;;5.18;;
65581;SDS011;52231;40.090;18.348;2023-09-19T14:34:24;19.83;;;4.78;;
65581;SDS011;52231;40.090;18.348;2023-09-19T14:36:55;18.48;;;5.18;;
65581;SDS011;52231;40.090;18.348;2023-09-19T14:39:25;17.52;;;4.57;;
65581;SDS011;52231;40.090;18.348;2023-09-19T14:41:56;16.15;;;5.10;;
65581;SDS011;52231;40.090;18.348;2023-09-19T14:44:28;21.48;;;4.53;;
65581;SDS011;52231;40.090;18.348;2023-09-19T14:47:01;17.15;;;4.78;;
65581;SDS011;52231;40.090;18.348;2023-09-19T14:49:34;18.20;;;4.90;;
65581;SDS011;52231;40.090;18.348;2023-09-19T14:52:29;19.48;;;5.38;;
65581;SDS011;52231;40.090;18.348;2023-09-19T14:55:00;16.70;;;4.63;;
65581;SDS011;52231;40.090;18.348;2023-09-19T14:57:30;14.43;;;4.65;;
65581;SDS011;52231;40.090;18.348;2023-09-19T15:04:33;20.58;;;4.90;;
65581;SDS011;52231;40.090;18.348;2023-09-19T15:07:23;18.67;;;4.88;;
65581;SDS011;52231;40.090;18.348;2023-09-19T15:09:53;20.23;;;4.78;;
65581;SDS011;52231;40.090;18.348;2023-09-19T15:12:25;17.88;;;4.82;;
65581;SDS011;52231;40.090;18.348;2023-09-19T15:14:58;21.25;;;6.05;;
65581;SDS011;52231;40.090;18.348;2023-09-19T15:17:27;18.23;;;5.30;;
65581;SDS011;52231;40.090;18.348;2023-09-19T15:19:56;20.20;;;5.13;;
65581;SDS011;52231;40.090;18.348;2023-09-19T15:22:26;15.60;;;4.45;;
65581;SDS011;52231;40.090;18.348;2023-09-19T15:24:55;18.88;;;4.38;;
65581;SDS011;52231;40.090;18.348;2023-09-19T15:27:24;19.83;;;4.75;;
65581;SDS011;52231;40.090;18.348;2023-09-19T15:29:54;15.70;;;4.65;;
65581;SDS011;52231;40.090;18.348;2023-09-19T15:32:24;17.50;;;5.07;;
65581;SDS011;52231;40.090;18.348;2023-09-19T15:34:52;20.50;;;5.68;;
65581;SDS011;52231;40.090;18.348;2023-09-19T15:37:21;17.90;;;5.43;;
65581;SDS011;52231;40.090;18.348;2023-09-19T15:39:49;16.92;;;4.88;;
65581;SDS011;52231;40.090;18.348;2023-09-19T15:42:19;18.73;;;5.53;;
65581;SDS011;52231;40.090;18.348;2023-09-19T15:44:47;19.58;;;5.30;;
65581;SDS011;52231;40.090;18.348;2023-09-19T15:47:18;14.57;;;4.55;;
65581;SDS011;52231;40.090;18.348;2023-09-19T15:49:47;21.08;;;4.97;;
65581;SDS011;52231;40.090;18.348;2023-09-19T15:52:17;21.33;;;5.00;;
65581;SDS011;52231;40.090;18.348;2023-09-19T15:54:46;19.85;;;4.82;;
65581;SDS011;52231;40.090;18.348;2023-09-19T15:57:14;20.13;;;4.95;;
65581;SDS011;52231;40.090;18.348;2023-09-19T15:59:42;21.98;;;4.80;;
65581;SDS011;52231;40.090;18.348;2023-09-19T16:02:12;22.02;;;6.72;;
65581;SDS011;52231;40.090;18.348;2023-09-19T16:04:40;71.35;;;33.80;;
65581;SDS011;52231;40.090;18.348;2023-09-19T16:07:11;63.25;;;26.88;;
65581;SDS011;52231;40.090;18.348;2023-09-19T16:09:39;48.00;;;18.33;;
65581;SDS011;52231;40.090;18.348;2023-09-19T16:12:08;39.67;;;11.88;;
65581;SDS011;52231;40.090;18.348;2023-09-19T16:14:37;20.65;;;7.18;;
65581;SDS011;52231;40.090;18.348;2023-09-19T16:17:05;21.73;;;5.53;;
65581;SDS011;52231;40.090;18.348;2023-09-19T16:19:40;19.55;;;5.88;;
65581;SDS011;52231;40.090;18.348;2023-09-19T16:22:10;14.82;;;5.32;;
65581;SDS011;52231;40.090;18.348;2023-09-19T16:24:39;23.15;;;6.45;;
65581;SDS011;52231;40.090;18.348;2023-09-19T16:27:07;18.27;;;5.75;;
65581;SDS011;52231;40.090;18.348;2023-09-19T16:29:36;23.45;;;8.20;;
65581;SDS011;52231;40.090;18.348;2023-09-19T16:32:04;34.47;;;13.90;;
65581;SDS011;52231;40.090;18.348;2023-09-19T16:34:33;25.30;;;9.05;;